createdAt,value
2022-12-08T00:06:16.910Z,22.30
2022-12-08T00:16:18.280Z,18.90
2022-12-08T00:26:19.703Z,17.13
2022-12-08T00:36:21.189Z,23.53
2022-12-08T00:46:22.613Z,21.50
2022-12-08T00:56:24.285Z,24.07
2022-12-08T01:06:25.653Z,23.40
2022-12-08T01:16:29.590Z,23.52
2022-12-08T01:26:31.047Z,24.87
2022-12-08T01:36:36.843Z,22.33
2022-12-08T01:46:42.948Z,25.98
2022-12-08T01:57:21.587Z,23.65
2022-12-08T02:07:23.371Z,32.80
2022-12-08T02:18:02.249Z,36.83
2022-12-08T02:28:29.210Z,40.67
2022-12-08T02:38:57.514Z,35.07
2022-12-08T02:48:59.287Z,34.03
2022-12-08T02:59:22.521Z,35.85
2022-12-08T03:09:39.809Z,38.27
2022-12-08T03:19:43.168Z,42.57
2022-12-08T03:29:46.347Z,26.17
2022-12-08T03:39:47.838Z,34.42
2022-12-08T03:49:49.169Z,44.40
2022-12-08T03:59:50.562Z,35.67
2022-12-08T04:09:51.900Z,30.25
2022-12-08T04:19:53.296Z,36.77
2022-12-08T04:29:54.615Z,38.07
2022-12-08T04:39:55.991Z,26.35
2022-12-08T04:49:57.361Z,29.30
2022-12-08T04:59:58.690Z,28.63
2022-12-08T05:10:00.040Z,29.85
2022-12-08T05:20:01.792Z,14.77
2022-12-08T05:30:03.823Z,26.83
2022-12-08T05:40:06.396Z,15.80
2022-12-08T05:50:08.346Z,15.48
2022-12-08T06:00:10.537Z,13.27
2022-12-08T06:10:12.356Z,21.60
2022-12-08T06:20:13.809Z,20.05
2022-12-08T06:30:15.792Z,18.77
2022-12-08T06:40:17.311Z,21.30
2022-12-08T06:50:18.666Z,20.90
2022-12-08T07:00:20.275Z,23.98
2022-12-08T07:10:21.599Z,25.10
2022-12-08T07:20:22.924Z,24.27
2022-12-08T07:30:24.268Z,23.52
2022-12-08T07:40:25.658Z,16.37
2022-12-08T07:50:27.090Z,17.73
2022-12-08T08:00:28.606Z,16.50
2022-12-08T08:10:30.177Z,19.97
2022-12-08T08:20:31.640Z,17.00
2022-12-08T08:30:33.063Z,19.52
2022-12-08T08:40:34.644Z,14.07
2022-12-08T08:50:37.693Z,14.60
2022-12-08T09:00:39.389Z,13.10
2022-12-08T09:10:40.883Z,16.67
2022-12-08T09:20:42.370Z,24.97
2022-12-08T09:30:43.711Z,23.10
2022-12-08T09:40:54.259Z,23.35
2022-12-08T09:50:57.320Z,24.17
2022-12-08T10:00:59.314Z,20.30
2022-12-08T10:11:10.653Z,21.70
2022-12-08T10:21:18.734Z,14.25
2022-12-08T10:31:23.287Z,16.53
2022-12-08T10:41:24.828Z,21.87
2022-12-08T10:51:36.403Z,27.50
2022-12-08T11:01:40.294Z,26.27
2022-12-08T11:12:18.560Z,23.80
2022-12-08T11:22:51.335Z,25.10
2022-12-08T11:33:01.201Z,26.03
2022-12-08T11:43:33.419Z,23.37
2022-12-08T11:53:51.090Z,19.15
2022-12-08T12:03:59.657Z,12.35
2022-12-08T12:14:10.369Z,12.43
2022-12-08T12:24:25.487Z,11.63
2022-12-08T12:34:46.579Z,11.70
2022-12-08T12:45:22.570Z,11.87
2022-12-08T12:55:25.957Z,11.90
2022-12-08T13:05:30.488Z,9.50
2022-12-08T13:15:38.566Z,7.17
2022-12-08T13:25:39.933Z,16.20
2022-12-08T13:35:47.712Z,15.57
2022-12-08T14:06:41.918Z,24.97
2022-12-08T14:16:56.181Z,24.05
2022-12-08T14:27:04.407Z,25.33
2022-12-08T14:37:10.736Z,26.53
2022-12-08T14:47:19.046Z,24.48
2022-12-08T14:57:20.638Z,21.77
2022-12-08T15:07:25.139Z,21.20
2022-12-08T15:17:34.667Z,22.30
2022-12-08T15:27:46.915Z,15.95
2022-12-08T15:37:51.411Z,16.33
2022-12-08T15:47:52.763Z,16.07
2022-12-08T16:08:38.297Z,29.23
2022-12-08T16:18:40.003Z,31.00
2022-12-08T16:28:57.250Z,31.23
2022-12-08T16:38:58.628Z,28.87
2022-12-08T16:49:00.159Z,28.90
2022-12-08T16:59:02.156Z,26.02
2022-12-08T17:09:03.904Z,27.42
2022-12-08T17:19:05.424Z,31.17
2022-12-08T17:29:06.804Z,24.90
2022-12-08T17:39:11.035Z,29.73
2022-12-08T17:49:22.141Z,28.30
2022-12-08T17:59:24.254Z,33.67
2022-12-08T18:09:25.679Z,37.13
2022-12-08T18:19:27.762Z,34.87
2022-12-08T18:29:29.122Z,35.63
2022-12-08T18:39:32.752Z,36.28
2022-12-08T18:49:34.060Z,33.60
2022-12-08T18:59:35.533Z,24.43
2022-12-08T19:09:37.850Z,25.87
2022-12-08T19:19:39.304Z,22.95
2022-12-08T19:29:40.687Z,30.00
2022-12-08T19:40:00.825Z,25.83
2022-12-08T19:50:20.719Z,24.60
2022-12-08T20:00:22.309Z,24.77
2022-12-08T20:10:28.152Z,24.73
2022-12-08T20:20:29.506Z,24.80
2022-12-08T20:30:30.937Z,28.60
2022-12-08T20:40:32.309Z,28.40
2022-12-08T20:50:33.653Z,30.77
2022-12-08T21:00:35.001Z,30.38
2022-12-08T21:10:42.186Z,33.23
2022-12-08T21:20:45.786Z,32.73
2022-12-08T21:30:47.193Z,30.23
2022-12-08T21:40:49.759Z,27.53
2022-12-08T21:50:51.227Z,30.83
2022-12-08T22:00:52.709Z,29.80
2022-12-08T22:10:54.361Z,30.73
2022-12-08T22:20:55.903Z,27.20
2022-12-08T22:30:57.463Z,28.07
2022-12-08T22:40:58.939Z,33.92
2022-12-08T22:51:00.673Z,33.30
2022-12-08T23:01:02.320Z,33.67
2022-12-08T23:11:03.976Z,37.10
2022-12-08T23:21:11.576Z,32.80
2022-12-08T23:31:13.228Z,34.30
2022-12-08T23:41:15.669Z,27.65
2022-12-08T23:51:17.909Z,33.38
